X  Tanca Dades meteorològiques de l'aviació METAR     EBBR Brussels Airport
Temperatura
11°C Temperatura
3°C Rosada
58% Humitat



Vent
13 KM/H
8 MPH
4 M/S
7 NUS



310°
NO
Condicions actuals

Parcialment ennuvolat Parcialment ennuvolat
Pressió 1021 (hPa) - 30.15 (inHg)
Visibilitat 6 (milla) - 9.7 (km)
Aeroport
Codi aeroport EBBR

Ubicació: Brussels Airport
Distància: 14 (km)

Metar:
EBBR 181420Z 31007KT 260V340 9999 FEW044 11/03 Q1021 NOSIG

Temps: 18-04-2024 16:20 CEST